createdAt,value
2022-07-30T00:02:09.704Z,101215.31
2022-07-30T00:04:39.244Z,101215.63
2022-07-30T00:07:06.289Z,101208.28
2022-07-30T00:09:33.303Z,101212.50
2022-07-30T00:12:01.725Z,101210.19
2022-07-30T00:14:28.664Z,101204.81
2022-07-30T00:16:55.601Z,101208.81
2022-07-30T00:19:22.610Z,101208.28
2022-07-30T00:21:52.422Z,101206.41
2022-07-30T00:24:21.079Z,101207.25
2022-07-30T00:26:53.615Z,101197.84
2022-07-30T00:29:20.505Z,101198.75
2022-07-30T00:31:49.670Z,101204.41
2022-07-30T00:34:22.345Z,101193.41
2022-07-30T00:36:51.816Z,101199.66
2022-07-30T00:39:18.773Z,101196.16
2022-07-30T00:42:06.432Z,101201.78
2022-07-30T00:44:33.533Z,101203.34
2022-07-30T00:47:00.803Z,101203.25
2022-07-30T00:49:28.176Z,101196.44
2022-07-30T00:51:55.316Z,101192.28
2022-07-30T00:54:22.585Z,101186.94
2022-07-30T00:56:50.084Z,101197.28
2022-07-30T00:59:17.379Z,101183.94
2022-07-30T01:01:44.546Z,101194.44
2022-07-30T01:04:14.786Z,101185.78
2022-07-30T01:06:44.270Z,101187.69
2022-07-30T01:09:13.752Z,101183.88
2022-07-30T01:11:44.410Z,101193.59
2022-07-30T01:14:11.313Z,101187.25
2022-07-30T01:16:41.705Z,101185.53
2022-07-30T01:19:38.661Z,101179.03
2022-07-30T01:22:33.928Z,101176.13
2022-07-30T01:25:04.011Z,101190.75
2022-07-30T01:27:36.901Z,101184.47
2022-07-30T01:30:08.562Z,101177.56
2022-07-30T01:32:42.147Z,101174.66
2022-07-30T01:35:11.373Z,101176.50
2022-07-30T01:37:42.581Z,101175.44
2022-07-30T01:40:10.311Z,101171.53
2022-07-30T01:42:41.324Z,101171.31
2022-07-30T01:45:11.637Z,101166.69
2022-07-30T01:47:42.080Z,101166.75
2022-07-30T01:50:16.045Z,101172.75
2022-07-30T01:52:46.022Z,101177.28
2022-07-30T01:55:24.999Z,101172.63
2022-07-30T01:57:54.119Z,101178.97
2022-07-30T02:00:25.735Z,101171.31
2022-07-30T02:02:52.664Z,101174.22
2022-07-30T02:05:24.266Z,101184.97
2022-07-30T02:08:07.425Z,101191.25
2022-07-30T02:10:44.093Z,101192.00
2022-07-30T02:13:16.765Z,101191.25
2022-07-30T02:15:54.944Z,101187.78
2022-07-30T02:18:28.734Z,101186.19
2022-07-30T02:21:07.604Z,101188.03
2022-07-30T02:23:48.097Z,101195.84
2022-07-30T02:26:19.305Z,101190.41
2022-07-30T02:28:51.156Z,101183.81
2022-07-30T02:31:25.566Z,101183.66
2022-07-30T02:34:01.631Z,101187.25
2022-07-30T02:36:29.941Z,101189.09
2022-07-30T02:39:01.612Z,101191.16
2022-07-30T02:41:31.381Z,101190.31
2022-07-30T02:43:59.656Z,101192.59
2022-07-30T02:46:27.875Z,101202.88
2022-07-30T02:48:58.562Z,101201.94
2022-07-30T02:51:30.797Z,101205.78
2022-07-30T02:54:00.474Z,101206.09
2022-07-30T02:56:31.382Z,101208.69
2022-07-30T02:59:01.399Z,101206.09
2022-07-30T03:01:31.895Z,101203.94
2022-07-30T03:03:59.424Z,101216.97
2022-07-30T03:06:31.974Z,101205.88
2022-07-30T03:09:02.535Z,101202.72
2022-07-30T03:11:34.655Z,101204.56
2022-07-30T03:14:07.965Z,101206.31
2022-07-30T03:16:41.936Z,101209.38
2022-07-30T03:19:14.500Z,101212.38
2022-07-30T03:21:46.272Z,101216.59
2022-07-30T03:24:15.061Z,101206.94
2022-07-30T03:26:46.193Z,101211.59
2022-07-30T03:29:14.653Z,101216.38
2022-07-30T03:31:42.690Z,101211.53
2022-07-30T03:34:12.862Z,101212.50
2022-07-30T03:36:44.285Z,101202.53
2022-07-30T03:39:12.178Z,101205.91
2022-07-30T03:41:42.016Z,101205.50
2022-07-30T03:44:09.438Z,101193.38
2022-07-30T03:46:38.875Z,101201.66
2022-07-30T03:49:09.131Z,101205.63
2022-07-30T03:51:37.644Z,101198.66
2022-07-30T03:54:13.149Z,101194.69
2022-07-30T03:56:41.562Z,101198.91
2022-07-30T03:59:13.493Z,101192.38
2022-07-30T04:01:42.851Z,101193.28
2022-07-30T04:04:10.840Z,101186.81
2022-07-30T04:06:43.259Z,101191.06
2022-07-30T04:09:12.370Z,101192.59
2022-07-30T04:11:41.551Z,101186.81
2022-07-30T04:14:09.449Z,101185.31
2022-07-30T04:17:18.467Z,101197.19
2022-07-30T04:20:00.022Z,101187.66
2022-07-30T04:22:36.425Z,101191.72
2022-07-30T04:25:12.031Z,101198.38
2022-07-30T04:28:02.766Z,101198.38
2022-07-30T04:30:35.367Z,101194.66
2022-07-30T04:33:04.644Z,101195.44
2022-07-30T04:35:51.036Z,101197.22
2022-07-30T04:38:20.279Z,101198.34
2022-07-30T04:40:48.108Z,101201.88
2022-07-30T04:43:17.521Z,101202.72
2022-07-30T04:45:45.007Z,101204.41
2022-07-30T04:48:11.984Z,101209.56
2022-07-30T04:50:43.080Z,101207.72
2022-07-30T04:53:11.062Z,101209.72
2022-07-30T04:55:42.521Z,101223.50
2022-07-30T04:58:11.420Z,101218.69
2022-07-30T05:00:41.342Z,101216.09
2022-07-30T05:03:12.866Z,101219.41
2022-07-30T05:05:43.328Z,101224.47
2022-07-30T05:08:10.633Z,101222.91
2022-07-30T05:10:38.510Z,101223.09
2022-07-30T05:13:11.230Z,101222.19
2022-07-30T05:15:44.765Z,101220.81
2022-07-30T05:18:14.834Z,101224.88
2022-07-30T05:20:44.877Z,101233.84
2022-07-30T05:23:11.790Z,101229.69
2022-07-30T05:25:38.631Z,101232.47
2022-07-30T05:28:05.580Z,101235.91
2022-07-30T05:30:32.530Z,101230.63
2022-07-30T05:33:08.723Z,101232.94
2022-07-30T05:35:42.730Z,101236.75
2022-07-30T05:38:09.631Z,101229.91
2022-07-30T05:40:36.537Z,101235.78
2022-07-30T05:43:06.074Z,101239.56
2022-07-30T05:45:33.163Z,101226.66
2022-07-30T05:48:00.048Z,101237.06
2022-07-30T05:50:29.235Z,101245.88
2022-07-30T05:52:58.546Z,101239.66
2022-07-30T05:55:25.508Z,101242.66
2022-07-30T06:02:01.294Z,101249.28
2022-07-30T06:04:28.233Z,101253.13
2022-07-30T06:06:55.340Z,101250.69
2022-07-30T06:09:22.278Z,101245.34
2022-07-30T06:11:57.607Z,101250.38
2022-07-30T06:14:26.713Z,101246.19
2022-07-30T06:16:53.667Z,101247.66
2022-07-30T06:19:22.846Z,101249.00
2022-07-30T06:22:05.860Z,101248.50
2022-07-30T06:24:34.514Z,101248.97
2022-07-30T06:27:02.102Z,101252.50
2022-07-30T06:29:29.331Z,101247.22
2022-07-30T06:31:56.571Z,101261.84
2022-07-30T06:34:23.544Z,101257.75
2022-07-30T06:36:52.668Z,101251.47
2022-07-30T06:39:56.592Z,101254.97
2022-07-30T06:42:08.867Z,101256.63
2022-07-30T06:44:35.730Z,101260.22
2022-07-30T06:47:07.733Z,101260.75
2022-07-30T06:49:37.982Z,101256.84
2022-07-30T06:52:07.965Z,101260.69
2022-07-30T06:54:37.333Z,101263.41
2022-07-30T06:57:04.492Z,101266.03
2022-07-30T06:59:56.378Z,101268.28
2022-07-30T07:02:24.525Z,101265.56
2022-07-30T07:04:51.588Z,101263.03
2022-07-30T07:07:37.421Z,101276.41
2022-07-30T07:10:08.976Z,101269.06
2022-07-30T07:12:35.974Z,101267.72
2022-07-30T07:15:08.760Z,101275.78
2022-07-30T07:17:35.754Z,101274.22
2022-07-30T07:20:05.363Z,101271.28
2022-07-30T07:22:32.342Z,101270.75
2022-07-30T07:25:01.981Z,101267.09
2022-07-30T07:27:32.584Z,101273.72
2022-07-30T07:30:01.168Z,101268.78
2022-07-30T07:32:31.977Z,101276.63
2022-07-30T07:35:04.056Z,101267.84
2022-07-30T07:37:33.074Z,101273.75
2022-07-30T07:40:04.602Z,101274.56
2022-07-30T07:42:31.689Z,101274.78
2022-07-30T07:45:00.741Z,101270.78
2022-07-30T07:47:27.616Z,101269.09
2022-07-30T07:49:57.607Z,101276.59
2022-07-30T07:52:24.476Z,101278.69
2022-07-30T07:54:53.849Z,101279.84
2022-07-30T07:57:20.727Z,101282.38
2022-07-30T07:59:47.928Z,101279.63
2022-07-30T08:02:19.604Z,101286.50
2022-07-30T08:04:49.597Z,101290.66
2022-07-30T08:07:19.161Z,101283.50
2022-07-30T08:09:46.031Z,101277.94
2022-07-30T08:12:16.078Z,101283.59
2022-07-30T08:14:42.994Z,101286.25
2022-07-30T08:17:10.415Z,101292.59
2022-07-30T08:19:37.443Z,101291.31
2022-07-30T08:22:04.379Z,101283.31
2022-07-30T08:24:31.471Z,101291.84
2022-07-30T08:27:03.483Z,101288.34
2022-07-30T08:29:30.747Z,101287.00
2022-07-30T08:31:57.778Z,101293.03
2022-07-30T08:34:27.058Z,101285.91
2022-07-30T08:36:54.023Z,101279.84
2022-07-30T08:39:25.667Z,101284.97
2022-07-30T08:41:52.735Z,101281.13
2022-07-30T08:44:22.996Z,101288.38
2022-07-30T08:46:56.368Z,101284.84
2022-07-30T08:49:23.904Z,101291.16
2022-07-30T08:51:54.192Z,101289.13
2022-07-30T08:54:23.825Z,101295.03
2022-07-30T08:56:50.805Z,101297.66
2022-07-30T08:59:18.498Z,101292.81
2022-07-30T09:01:47.756Z,101299.13
2022-07-30T09:04:17.054Z,101302.91
2022-07-30T09:06:49.934Z,101300.44
2022-07-30T09:09:17.144Z,101296.28
2022-07-30T09:11:46.294Z,101300.22
2022-07-30T09:14:15.103Z,101291.78
2022-07-30T09:16:43.918Z,101301.25
2022-07-30T09:19:20.646Z,101291.66
2022-07-30T09:22:00.024Z,101298.78
2022-07-30T09:24:27.818Z,101295.91
2022-07-30T09:27:03.176Z,101303.53
2022-07-30T09:29:31.956Z,101294.16
2022-07-30T09:32:01.173Z,101299.44
2022-07-30T09:34:33.671Z,101298.63
2022-07-30T09:37:05.472Z,101293.56
2022-07-30T09:39:37.258Z,101298.19
2022-07-30T09:42:23.774Z,101305.53
2022-07-30T09:45:07.349Z,101309.56
2022-07-30T09:47:39.978Z,101298.41
2022-07-30T09:50:30.182Z,101296.78
2022-07-30T09:53:09.079Z,101307.91
2022-07-30T09:55:41.486Z,101310.22
2022-07-30T09:58:12.887Z,101306.19
2022-07-30T10:00:49.078Z,101309.16
2022-07-30T10:03:21.644Z,101312.78
2022-07-30T10:06:03.090Z,101319.41
2022-07-30T10:08:51.937Z,101310.97
2022-07-30T10:11:24.384Z,101311.34
2022-07-30T10:13:57.915Z,101302.91
2022-07-30T10:16:32.949Z,101314.28
2022-07-30T10:19:00.674Z,101315.78
2022-07-30T10:21:32.600Z,101310.78
2022-07-30T10:24:04.162Z,101317.63
2022-07-30T10:26:37.339Z,101314.28
2022-07-30T10:29:07.307Z,101313.06
2022-07-30T10:31:48.073Z,101318.50
2022-07-30T10:34:19.034Z,101316.13
2022-07-30T10:37:06.847Z,101318.66
2022-07-30T10:40:11.162Z,101321.94
2022-07-30T10:43:23.343Z,101319.25
2022-07-30T10:46:30.637Z,101320.97
2022-07-30T10:49:19.132Z,101313.19
2022-07-30T10:51:59.986Z,101314.25
2022-07-30T10:54:41.065Z,101303.00
2022-07-30T10:57:22.401Z,101317.06
2022-07-30T10:59:55.680Z,101311.16
2022-07-30T11:02:25.635Z,101314.00
2022-07-30T11:05:18.181Z,101310.28
2022-07-30T11:07:47.901Z,101312.78
2022-07-30T11:10:44.005Z,101314.78
2022-07-30T11:13:11.228Z,101307.31
2022-07-30T11:16:00.462Z,101310.78
2022-07-30T11:18:33.105Z,101304.81
2022-07-30T11:21:21.252Z,101304.38
2022-07-30T11:23:54.668Z,101288.50
2022-07-30T11:26:41.733Z,101290.44
2022-07-30T11:29:51.181Z,101290.06
2022-07-30T11:32:34.737Z,101292.66
2022-07-30T11:35:25.456Z,101296.28
2022-07-30T11:38:06.998Z,101294.56
2022-07-30T11:41:00.839Z,101288.44
2022-07-30T11:43:35.915Z,101298.25
2022-07-30T11:46:17.950Z,101294.97
2022-07-30T11:49:12.795Z,101281.06
2022-07-30T11:51:46.030Z,101284.47
2022-07-30T11:54:15.181Z,101289.59
2022-07-30T11:57:08.393Z,101284.28
2022-07-30T11:59:56.328Z,101284.06
2022-07-30T12:02:29.467Z,101290.06
2022-07-30T12:04:56.385Z,101280.56
2022-07-30T12:07:25.856Z,101290.19
2022-07-30T12:09:52.788Z,101290.03
2022-07-30T12:12:25.719Z,101286.56
2022-07-30T12:15:01.732Z,101283.69
2022-07-30T12:17:45.506Z,101285.34
2022-07-30T12:20:20.781Z,101288.78
2022-07-30T12:22:48.052Z,101297.06
2022-07-30T12:25:17.824Z,101291.06
2022-07-30T12:27:52.345Z,101282.47
2022-07-30T12:30:24.526Z,101280.38
2022-07-30T12:32:51.673Z,101283.41
2022-07-30T12:35:18.659Z,101287.38
2022-07-30T12:38:04.305Z,101277.59
2022-07-30T12:40:31.468Z,101275.50
2022-07-30T12:42:58.606Z,101266.88
2022-07-30T12:45:52.324Z,101277.16
2022-07-30T12:48:24.025Z,101269.25
2022-07-30T12:51:11.354Z,101268.50
2022-07-30T12:53:43.013Z,101262.25
2022-07-30T12:56:15.505Z,101261.72
2022-07-30T12:58:43.124Z,101256.81
2022-07-30T13:01:13.147Z,101264.22
2022-07-30T13:03:45.659Z,101254.03
2022-07-30T13:06:25.495Z,101246.78
2022-07-30T13:08:58.682Z,101244.53
2022-07-30T13:11:49.261Z,101246.66
2022-07-30T13:14:19.261Z,101238.75
2022-07-30T13:16:56.190Z,101230.31
2022-07-30T13:19:25.705Z,101234.22
2022-07-30T13:22:02.281Z,101233.28
2022-07-30T13:24:32.579Z,101231.66
2022-07-30T13:27:02.107Z,101224.25
2022-07-30T13:29:30.111Z,101228.72
2022-07-30T13:32:01.524Z,101233.66
2022-07-30T13:34:30.729Z,101226.56
2022-07-30T13:36:57.694Z,101227.81
2022-07-30T13:39:26.856Z,101218.47
2022-07-30T13:41:55.858Z,101224.75
2022-07-30T13:44:22.781Z,101214.06
2022-07-30T13:46:51.881Z,101202.09
2022-07-30T13:49:18.783Z,101207.22
2022-07-30T13:51:48.196Z,101204.03
2022-07-30T13:54:15.686Z,101200.69
2022-07-30T13:56:44.755Z,101201.25
2022-07-30T13:59:13.923Z,101204.28
2022-07-30T14:01:43.074Z,101198.19
2022-07-30T14:04:10.046Z,101199.56
2022-07-30T14:06:37.253Z,101196.06
2022-07-30T14:09:04.567Z,101200.69
2022-07-30T14:11:32.103Z,101195.72
2022-07-30T14:13:59.007Z,101207.00
2022-07-30T14:16:44.594Z,101201.31
2022-07-30T14:19:12.365Z,101201.47
2022-07-30T14:21:51.043Z,101199.44
2022-07-30T14:24:17.967Z,101200.16
2022-07-30T14:26:44.931Z,101195.94
2022-07-30T14:29:12.055Z,101198.97
2022-07-30T14:31:40.379Z,101198.97
2022-07-30T14:34:07.677Z,101203.47
2022-07-30T14:36:37.750Z,101199.28
2022-07-30T14:39:05.561Z,101202.44
2022-07-30T14:41:38.627Z,101202.91
2022-07-30T14:44:12.389Z,101199.94
2022-07-30T14:46:52.326Z,101195.81
2022-07-30T14:49:24.343Z,101194.22
2022-07-30T14:51:56.227Z,101199.41
2022-07-30T14:54:23.408Z,101205.03
2022-07-30T14:56:59.039Z,101195.78
2022-07-30T14:59:31.315Z,101193.28
2022-07-30T15:01:58.417Z,101199.72
2022-07-30T15:04:27.581Z,101190.63
2022-07-30T15:06:59.710Z,101193.19
2022-07-30T15:09:30.476Z,101200.19
2022-07-30T15:12:08.954Z,101195.28
2022-07-30T15:14:41.777Z,101203.38
2022-07-30T15:17:13.943Z,101200.56
2022-07-30T15:19:50.387Z,101199.56
2022-07-30T15:22:19.924Z,101198.03
2022-07-30T15:24:51.923Z,101209.13
2022-07-30T15:27:19.304Z,101198.41
2022-07-30T15:29:49.469Z,101202.00
2022-07-30T15:32:17.298Z,101198.91
2022-07-30T15:34:46.819Z,101199.50
2022-07-30T15:37:15.942Z,101201.72
2022-07-30T15:39:43.589Z,101201.97
2022-07-30T15:42:15.724Z,101208.94
2022-07-30T15:44:48.615Z,101201.97
2022-07-30T15:47:18.743Z,101207.66
2022-07-30T15:49:46.016Z,101200.03
2022-07-30T15:52:13.858Z,101208.09
2022-07-30T15:54:43.432Z,101205.84
2022-07-30T15:57:12.625Z,101205.75
2022-07-30T15:59:42.111Z,101219.06
2022-07-30T16:02:09.522Z,101214.25
2022-07-30T16:04:39.247Z,101213.44
2022-07-30T16:07:08.345Z,101220.03
2022-07-30T16:09:35.479Z,101217.41
2022-07-30T16:12:02.955Z,101224.75
2022-07-30T16:14:30.341Z,101224.25
2022-07-30T16:17:02.398Z,101236.03
2022-07-30T16:19:31.878Z,101226.53
2022-07-30T16:21:58.952Z,101231.31
2022-07-30T16:24:26.086Z,101241.59
2022-07-30T16:26:55.694Z,101263.31
2022-07-30T16:29:22.851Z,101249.34
2022-07-30T16:31:52.894Z,101265.16
2022-07-30T16:34:26.351Z,101274.78
2022-07-30T16:36:54.119Z,101286.94
2022-07-30T16:39:21.204Z,101283.53
2022-07-30T16:41:48.331Z,101285.34
2022-07-30T16:44:15.806Z,101290.41
2022-07-30T16:46:45.481Z,101288.91
2022-07-30T16:49:14.961Z,101287.63
2022-07-30T16:51:47.683Z,101277.88
2022-07-30T16:54:17.501Z,101281.91
2022-07-30T16:56:47.501Z,101273.56
2022-07-30T16:59:14.670Z,101276.16
2022-07-30T17:01:41.641Z,101279.66
2022-07-30T17:04:08.822Z,101272.09
2022-07-30T17:06:36.375Z,101277.19
2022-07-30T17:09:03.631Z,101272.03
2022-07-30T17:11:47.550Z,101291.59
2022-07-30T17:14:19.675Z,101290.69
2022-07-30T17:16:46.888Z,101291.56
2022-07-30T17:19:13.836Z,101293.59
2022-07-30T17:21:40.857Z,101302.94
2022-07-30T17:24:13.898Z,101300.25
2022-07-30T17:26:44.984Z,101311.78
2022-07-30T17:29:18.250Z,101316.09
2022-07-30T17:31:50.730Z,101318.16
2022-07-30T17:34:20.893Z,101312.97
2022-07-30T17:36:52.354Z,101314.66
2022-07-30T17:40:19.309Z,101314.44
2022-07-30T17:42:15.509Z,101309.31
2022-07-30T17:44:45.551Z,101295.16
2022-07-30T17:47:16.359Z,101298.28
2022-07-30T17:49:44.254Z,101289.25
2022-07-30T17:52:11.508Z,101285.63
2022-07-30T17:54:38.738Z,101277.69
2022-07-30T17:57:06.160Z,101281.38
2022-07-30T17:59:33.291Z,101281.66
2022-07-30T18:02:04.585Z,101283.63
2022-07-30T18:04:32.359Z,101277.88
2022-07-30T18:06:59.614Z,101276.38
2022-07-30T18:09:30.136Z,101276.38
2022-07-30T18:12:08.416Z,101270.84
2022-07-30T18:14:35.702Z,101281.44
2022-07-30T18:17:03.706Z,101279.88
2022-07-30T18:19:33.252Z,101282.78
2022-07-30T18:22:05.451Z,101283.00
2022-07-30T18:24:33.827Z,101283.38
2022-07-30T18:27:07.699Z,101284.81
2022-07-30T18:29:35.166Z,101286.50
2022-07-30T18:32:02.706Z,101286.97
2022-07-30T18:34:35.266Z,101289.50
2022-07-30T18:37:02.462Z,101285.88
2022-07-30T18:39:29.830Z,101283.34
2022-07-30T18:41:58.374Z,101287.34
2022-07-30T18:44:25.262Z,101287.47
2022-07-30T18:46:52.512Z,101291.94
2022-07-30T18:49:36.010Z,101292.97
2022-07-30T18:52:05.126Z,101293.59
2022-07-30T18:54:32.448Z,101290.00
2022-07-30T18:56:59.738Z,101296.34
2022-07-30T18:59:29.871Z,101290.81
2022-07-30T19:01:57.231Z,101296.84
2022-07-30T19:04:24.597Z,101300.47
2022-07-30T19:06:54.359Z,101298.78
2022-07-30T19:11:51.085Z,101294.16
2022-07-30T19:14:18.536Z,101287.22
2022-07-30T19:16:46.207Z,101288.53
2022-07-30T19:19:15.072Z,101280.59
2022-07-30T19:21:42.417Z,101280.00
2022-07-30T19:24:12.537Z,101287.69
2022-07-30T19:26:39.958Z,101283.38
2022-07-30T19:29:10.405Z,101287.06
2022-07-30T19:31:41.765Z,101286.97
2022-07-30T19:34:10.921Z,101292.88
2022-07-30T19:36:40.871Z,101294.56
2022-07-30T19:39:15.972Z,101299.25
2022-07-30T19:44:41.123Z,101302.16
2022-07-30T19:47:11.358Z,101305.88
2022-07-30T19:49:43.273Z,101315.88
2022-07-30T19:52:23.672Z,101320.34
2022-07-30T19:54:52.731Z,101311.78
2022-07-30T19:57:22.175Z,101308.41
2022-07-30T20:00:00.230Z,101308.66
2022-07-30T20:02:35.746Z,101308.28
2022-07-30T20:05:10.908Z,101316.34
2022-07-30T20:07:40.598Z,101320.22
2022-07-30T20:10:10.810Z,101319.72
2022-07-30T20:12:42.025Z,101319.59
2022-07-30T20:15:14.782Z,101328.03
2022-07-30T20:17:46.498Z,101323.94
2022-07-30T20:20:18.405Z,101324.66
2022-07-30T20:22:53.934Z,101324.06
2022-07-30T20:25:21.795Z,101319.97
2022-07-30T20:27:48.759Z,101321.19
2022-07-30T20:30:16.353Z,101325.50
2022-07-30T20:32:52.707Z,101327.19
2022-07-30T20:35:21.486Z,101329.47
2022-07-30T20:37:55.519Z,101333.94
2022-07-30T20:40:26.791Z,101338.75
2022-07-30T20:42:57.921Z,101327.78
2022-07-30T20:45:40.276Z,101336.94
2022-07-30T20:48:16.967Z,101334.41
2022-07-30T20:53:37.223Z,101338.50
2022-07-30T20:56:10.155Z,101340.91
2022-07-30T20:58:37.855Z,101341.16
2022-07-30T21:01:05.145Z,101346.31
2022-07-30T21:03:34.583Z,101346.63
2022-07-30T21:06:06.187Z,101350.38
2022-07-30T21:08:34.023Z,101347.28
2022-07-30T21:11:03.286Z,101344.91
2022-07-30T21:13:30.636Z,101346.81
2022-07-30T21:16:02.760Z,101355.72
2022-07-30T21:18:31.607Z,101351.00
2022-07-30T21:21:05.687Z,101364.97
2022-07-30T21:23:33.515Z,101369.50
2022-07-30T21:26:10.513Z,101360.28
2022-07-30T21:28:40.848Z,101361.59
2022-07-30T21:31:10.970Z,101362.94
2022-07-30T21:33:40.679Z,101363.31
2022-07-30T21:36:10.318Z,101359.94
2022-07-30T21:38:42.529Z,101351.41
2022-07-30T21:41:14.051Z,101364.50
2022-07-30T21:43:44.121Z,101364.81
2022-07-30T21:46:12.449Z,101369.81
2022-07-30T21:48:45.890Z,101375.06
2022-07-30T21:51:13.869Z,101361.31
2022-07-30T21:53:46.308Z,101361.22
2022-07-30T21:56:15.835Z,101365.53
2022-07-30T21:58:44.197Z,101357.91
2022-07-30T22:01:17.823Z,101364.22
2022-07-30T22:04:01.198Z,101371.09
2022-07-30T22:06:34.929Z,101368.34
2022-07-30T22:09:10.121Z,101377.19
2022-07-30T22:11:46.999Z,101371.34
2022-07-30T22:14:14.334Z,101367.72
2022-07-30T22:16:46.208Z,101372.78
2022-07-30T22:19:14.998Z,101360.78
2022-07-30T22:21:46.599Z,101371.84
2022-07-30T22:24:29.828Z,101363.06
2022-07-30T22:27:11.759Z,101373.25
2022-07-30T22:29:43.385Z,101376.53
2022-07-30T22:32:12.050Z,101376.31
2022-07-30T22:34:39.535Z,101371.56
2022-07-30T22:37:09.226Z,101372.03
2022-07-30T22:39:51.637Z,101373.72
2022-07-30T22:42:24.080Z,101366.13
2022-07-30T22:44:55.474Z,101356.28
2022-07-30T22:47:54.108Z,101360.97
2022-07-30T22:50:17.256Z,101354.75
2022-07-30T22:53:01.835Z,101352.97
2022-07-30T22:55:41.109Z,101360.69
2022-07-30T22:58:08.383Z,101354.41
2022-07-30T23:00:37.080Z,101351.41
2022-07-30T23:03:07.804Z,101352.41
2022-07-30T23:05:35.765Z,101358.63
2022-07-30T23:08:06.028Z,101357.47
2022-07-30T23:10:33.324Z,101354.66
2022-07-30T23:12:17.617Z,101305.25
2022-07-30T23:12:19.261Z,101336.69
2022-07-30T23:13:03.310Z,101351.78
2022-07-30T23:15:30.568Z,101352.72
2022-07-30T23:17:57.866Z,101344.19
2022-07-30T23:20:29.619Z,101350.09
2022-07-30T23:22:59.291Z,101351.53
2022-07-30T23:25:38.636Z,101341.28
2022-07-30T23:28:06.662Z,101342.78
2022-07-30T23:30:36.082Z,101347.34
2022-07-30T23:33:08.735Z,101341.94
2022-07-30T23:35:35.958Z,101345.03
2022-07-30T23:38:03.367Z,101337.88
2022-07-30T23:40:33.279Z,101342.78
2022-07-30T23:43:03.281Z,101332.50
2022-07-30T23:45:32.844Z,101333.81
2022-07-30T23:48:05.795Z,101341.84
2022-07-30T23:50:33.815Z,101338.09
2022-07-30T23:53:07.037Z,101337.63
2022-07-30T23:55:34.494Z,101339.88
2022-07-30T23:58:01.916Z,101338.25
